Aviation Digital Data Service (ADDS)

Output produced by METARs form (0428 UTC 19 August 2019)
found at http://www.aviationweather.gov/metar/data/
 
METAR text: LFBO 190400Z AUTO 31010KT 9000 SCT009 BKN015 BKN025 17/16 Q1019 NOSIG
Conditions at: LFBO (TOULOUSE/BLAGNAC, FR) observed 0400 UTC 19 August 2019
Temperature: 17.0°C (63°F)
Dewpoint: 16.0°C (61°F) [RH = 94%]
Pressure (altimeter): 30.09 inches Hg (1019.0 mb)
Winds: from the NW (310 degrees) at 12 MPH (10 knots; 5.1 m/s)
Visibility: 6 miles ( 9 km)
Ceiling: 1500 feet AGL
Clouds: scattered clouds at 900 feet AGL
broken clouds at 1500 feet AGL
broken clouds at 2500 feet AGL
Weather: no significant weather observed at this time

METAR text: LFBO 190330Z AUTO 29007KT 9999 FEW012 BKN027 BKN033 18/16 Q1019 NOSIG
Conditions at: LFBO (TOULOUSE/BLAGNAC, FR) observed 0330 UTC 19 August 2019
Temperature: 18.0°C (64°F)
Dewpoint: 16.0°C (61°F) [RH = 88%]
Pressure (altimeter): 30.09 inches Hg (1019.0 mb)
Winds: from the WNW (290 degrees) at 8 MPH (7 knots; 3.6 m/s)
Visibility: 6 or more miles (10+ km)
Ceiling: 2700 feet AGL
Clouds: few clouds at 1200 feet AGL
broken clouds at 2700 feet AGL
broken clouds at 3300 feet AGL
Weather: no significant weather observed at this time

METAR text: LFBO 190300Z AUTO 29006KT 9999 OVC027 18/15 Q1019 NOSIG
Conditions at: LFBO (TOULOUSE/BLAGNAC, FR) observed 0300 UTC 19 August 2019
Temperature: 18.0°C (64°F)
Dewpoint: 15.0°C (59°F) [RH = 83%]
Pressure (altimeter): 30.09 inches Hg (1019.0 mb)
Winds: from the WNW (290 degrees) at 7 MPH (6 knots; 3.1 m/s)
Visibility: 6 or more miles (10+ km)
Ceiling: 2700 feet AGL
Clouds: overcast cloud deck at 2700 feet AGL
Weather: no significant weather observed at this time

METAR text: LFBO 190230Z AUTO 31008KT 9999 SCT029 BKN035 OVC042 18/15 Q1019 NOSIG
Conditions at: LFBO (TOULOUSE/BLAGNAC, FR) observed 0230 UTC 19 August 2019
Temperature: 18.0°C (64°F)
Dewpoint: 15.0°C (59°F) [RH = 83%]
Pressure (altimeter): 30.09 inches Hg (1019.0 mb)
Winds: from the NW (310 degrees) at 9 MPH (8 knots; 4.1 m/s)
Visibility: 6 or more miles (10+ km)
Ceiling: 3500 feet AGL
Clouds: scattered clouds at 2900 feet AGL
broken clouds at 3500 feet AGL
overcast cloud deck at 4200 feet AGL
Weather: no significant weather observed at this time

METAR text: LFBO 190200Z AUTO 30008KT 9999 FEW025 SCT034 OVC044 18/15 Q1019 NOSIG
Conditions at: LFBO (TOULOUSE/BLAGNAC, FR) observed 0200 UTC 19 August 2019
Temperature: 18.0°C (64°F)
Dewpoint: 15.0°C (59°F) [RH = 83%]
Pressure (altimeter): 30.09 inches Hg (1019.0 mb)
Winds: from the WNW (300 degrees) at 9 MPH (8 knots; 4.1 m/s)
Visibility: 6 or more miles (10+ km)
Ceiling: 4400 feet AGL
Clouds: few clouds at 2500 feet AGL
scattered clouds at 3400 feet AGL
overcast cloud deck at 4400 feet AGL
Weather: no significant weather observed at this time

METAR text: LFBO 190130Z AUTO 32009KT 300V010 9999 SCT026/// OVC047/// ///CB 19/14 Q1019 BECMG BKN035
Conditions at: LFBO (TOULOUSE/BLAGNAC, FR) observed 0130 UTC 19 August 2019
Temperature: 19.0°C (66°F)
Dewpoint: 14.0°C (57°F) [RH = 73%]
Pressure (altimeter): 30.09 inches Hg (1019.0 mb)
Winds: from the NW (320 degrees) at 10 MPH (9 knots; 4.6 m/s)
Visibility: 6 or more miles (10+ km)
Ceiling: 4700 feet AGL
Clouds: scattered clouds at 2600 feet AGL
overcast cloud deck at 4700 feet AGL
Weather: no significant weather observed at this time

METAR text: LFBO 190100Z AUTO 32011KT 9999 OVC046/// ///CB 19/14 Q1019 BECMG BKN035
Conditions at: LFBO (TOULOUSE/BLAGNAC, FR) observed 0100 UTC 19 August 2019
Temperature: 19.0°C (66°F)
Dewpoint: 14.0°C (57°F) [RH = 73%]
Pressure (altimeter): 30.09 inches Hg (1019.0 mb)
Winds: from the NW (320 degrees) at 13 MPH (11 knots; 5.7 m/s)
Visibility: 6 or more miles (10+ km)
Ceiling: 4600 feet AGL
Clouds: overcast cloud deck at 4600 feet AGL
Weather: no significant weather observed at this time

METAR text: LFBO 190030Z AUTO 31019KT 9999 -RA OVC047 19/14 Q1019 NOSIG
Conditions at: LFBO (TOULOUSE/BLAGNAC, FR) observed 0030 UTC 19 August 2019
Temperature: 19.0°C (66°F)
Dewpoint: 14.0°C (57°F) [RH = 73%]
Pressure (altimeter): 30.09 inches Hg (1019.0 mb)
Winds: from the NW (310 degrees) at 22 MPH (19 knots; 9.8 m/s)
Visibility: 6 or more miles (10+ km)
Ceiling: 4700 feet AGL
Clouds: overcast cloud deck at 4700 feet AGL
Weather: -RA  (light rain)

METAR text: LFBO 190000Z AUTO 31012KT 9999 OVC044 20/13 Q1018 NOSIG
Conditions at: LFBO (TOULOUSE/BLAGNAC, FR) observed 0000 UTC 19 August 2019
Temperature: 20.0°C (68°F)
Dewpoint: 13.0°C (55°F) [RH = 64%]
Pressure (altimeter): 30.06 inches Hg (1018.0 mb)
Winds: from the NW (310 degrees) at 14 MPH (12 knots; 6.2 m/s)
Visibility: 6 or more miles (10+ km)
Ceiling: 4400 feet AGL
Clouds: overcast cloud deck at 4400 feet AGL
Weather: no significant weather observed at this time

METAR text: LFBO 182330Z AUTO 32020KT 9999 OVC039/// ///CB 21/13 Q1017 BECMG BKN035
Conditions at: LFBO (TOULOUSE/BLAGNAC, FR) observed 2330 UTC 18 August 2019
Temperature: 21.0°C (70°F)
Dewpoint: 13.0°C (55°F) [RH = 60%]
Pressure (altimeter): 30.03 inches Hg (1017.0 mb)
Winds: from the NW (320 degrees) at 23 MPH (20 knots; 10.3 m/s)
Visibility: 6 or more miles (10+ km)
Ceiling: 3900 feet AGL
Clouds: overcast cloud deck at 3900 feet AGL
Weather: no significant weather observed at this time

METAR text: LFBO 182300Z AUTO 31017KT 9999 FEW026/// OVC039/// ///CB 22/15 Q1017 BECMG BKN045 BKN060
Conditions at: LFBO (TOULOUSE/BLAGNAC, FR) observed 2300 UTC 18 August 2019
Temperature: 22.0°C (72°F)
Dewpoint: 15.0°C (59°F) [RH = 65%]
Pressure (altimeter): 30.03 inches Hg (1017.0 mb)
Winds: from the NW (310 degrees) at 20 MPH (17 knots; 8.7 m/s)
Visibility: 6 or more miles (10+ km)
Ceiling: 3900 feet AGL
Clouds: few clouds at 2600 feet AGL
overcast cloud deck at 3900 feet AGL
Weather: no significant weather observed at this time

METAR text: LFBO 182230Z AUTO 30014KT 9999 OVC025 22/17 Q1017 NOSIG
Conditions at: LFBO (TOULOUSE/BLAGNAC, FR) observed 2230 UTC 18 August 2019
Temperature: 22.0°C (72°F)
Dewpoint: 17.0°C (63°F) [RH = 73%]
Pressure (altimeter): 30.03 inches Hg (1017.0 mb)
Winds: from the WNW (300 degrees) at 16 MPH (14 knots; 7.2 m/s)
Visibility: 6 or more miles (10+ km)
Ceiling: 2500 feet AGL
Clouds: overcast cloud deck at 2500 feet AGL
Weather: no significant weather observed at this time

METAR text: LFBO 182200Z AUTO 32017KT 9999 SCT023 BKN032 OVC038 23/17 Q1017 NOSIG
Conditions at: LFBO (TOULOUSE/BLAGNAC, FR) observed 2200 UTC 18 August 2019
Temperature: 23.0°C (73°F)
Dewpoint: 17.0°C (63°F) [RH = 69%]
Pressure (altimeter): 30.03 inches Hg (1017.0 mb)
Winds: from the NW (320 degrees) at 20 MPH (17 knots; 8.7 m/s)
Visibility: 6 or more miles (10+ km)
Ceiling: 3200 feet AGL
Clouds: scattered clouds at 2300 feet AGL
broken clouds at 3200 feet AGL
overcast cloud deck at 3800 feet AGL
Weather: no significant weather observed at this time

METAR text: LFBO 182130Z AUTO 31015KT 9999 OVC038 24/18 Q1016 NOSIG
Conditions at: LFBO (TOULOUSE/BLAGNAC, FR) observed 2130 UTC 18 August 2019
Temperature: 24.0°C (75°F)
Dewpoint: 18.0°C (64°F) [RH = 69%]
Pressure (altimeter): 30.00 inches Hg (1016.0 mb)
Winds: from the NW (310 degrees) at 17 MPH (15 knots; 7.7 m/s)
Visibility: 6 or more miles (10+ km)
Ceiling: 3800 feet AGL
Clouds: overcast cloud deck at 3800 feet AGL
Weather: no significant weather observed at this time

METAR text: LFBO 182100Z AUTO 32016KT 9999 OVC034 24/18 Q1016 TEMPO 4000 SHRA SCT040TCU
Conditions at: LFBO (TOULOUSE/BLAGNAC, FR) observed 2100 UTC 18 August 2019
Temperature: 24.0°C (75°F)
Dewpoint: 18.0°C (64°F) [RH = 69%]
Pressure (altimeter): 30.00 inches Hg (1016.0 mb)
Winds: from the NW (320 degrees) at 18 MPH (16 knots; 8.2 m/s)
Visibility: 6 or more miles (10+ km)
Ceiling: 3400 feet AGL
Clouds: overcast cloud deck at 3400 feet AGL
Weather: no significant weather observed at this time

METAR text: LFBO 182030Z AUTO 29010KT 9999 OVC034/// ///CB 25/19 Q1015 TEMPO 4000 SHRA BECMG BKN045 BKN060
Conditions at: LFBO (TOULOUSE/BLAGNAC, FR) observed 2030 UTC 18 August 2019
Temperature: 25.0°C (77°F)
Dewpoint: 19.0°C (66°F) [RH = 69%]
Pressure (altimeter): 29.97 inches Hg (1015.0 mb)
Winds: from the WNW (290 degrees) at 12 MPH (10 knots; 5.1 m/s)
Visibility: 6 or more miles (10+ km)
Ceiling: 3400 feet AGL
Clouds: overcast cloud deck at 3400 feet AGL
Weather: no significant weather observed at this time

METAR text: LFBO 182000Z AUTO 28011KT 9999 BKN035/// OVC049/// ///CB 25/19 Q1015 TEMPO 4000 SHRA
Conditions at: LFBO (TOULOUSE/BLAGNAC, FR) observed 2000 UTC 18 August 2019
Temperature: 25.0°C (77°F)
Dewpoint: 19.0°C (66°F) [RH = 69%]
Pressure (altimeter): 29.97 inches Hg (1015.0 mb)
Winds: from the W (280 degrees) at 13 MPH (11 knots; 5.7 m/s)
Visibility: 6 or more miles (10+ km)
Ceiling: 3500 feet AGL
Clouds: broken clouds at 3500 feet AGL
overcast cloud deck at 4900 feet AGL
Weather: no significant weather observed at this time

METAR text: LFBO 181930Z AUTO 27011KT 9999 BKN038 OVC058 26/19 Q1014 TEMPO 4000 SHRA SCT040TCU
Conditions at: LFBO (TOULOUSE/BLAGNAC, FR) observed 1930 UTC 18 August 2019
Temperature: 26.0°C (79°F)
Dewpoint: 19.0°C (66°F) [RH = 65%]
Pressure (altimeter): 29.94 inches Hg (1014.0 mb)
Winds: from the W (270 degrees) at 13 MPH (11 knots; 5.7 m/s)
Visibility: 6 or more miles (10+ km)
Ceiling: 3800 feet AGL
Clouds: broken clouds at 3800 feet AGL
overcast cloud deck at 5800 feet AGL
Weather: no significant weather observed at this time

METAR text: LFBO 181900Z AUTO 28012KT 9999 BKN041 OVC058 26/19 Q1013 TEMPO 4000 SHRA SCT040TCU
Conditions at: LFBO (TOULOUSE/BLAGNAC, FR) observed 1900 UTC 18 August 2019
Temperature: 26.0°C (79°F)
Dewpoint: 19.0°C (66°F) [RH = 65%]
Pressure (altimeter): 29.91 inches Hg (1013.0 mb)
Winds: from the W (280 degrees) at 14 MPH (12 knots; 6.2 m/s)
Visibility: 6 or more miles (10+ km)
Ceiling: 4100 feet AGL
Clouds: broken clouds at 4100 feet AGL
overcast cloud deck at 5800 feet AGL
Weather: no significant weather observed at this time

METAR text: LFBO 181830Z AUTO 28010KT 9999 FEW042/// OVC060/// ///CB 27/18 Q1013 TEMPO 4000 SHRA
Conditions at: LFBO (TOULOUSE/BLAGNAC, FR) observed 1830 UTC 18 August 2019
Temperature: 27.0°C (81°F)
Dewpoint: 18.0°C (64°F) [RH = 58%]
Pressure (altimeter): 29.91 inches Hg (1013.0 mb)
Winds: from the W (280 degrees) at 12 MPH (10 knots; 5.1 m/s)
Visibility: 6 or more miles (10+ km)
Ceiling: 6000 feet AGL
Clouds: few clouds at 4200 feet AGL
overcast cloud deck at 6000 feet AGL
Weather: no significant weather observed at this time

METAR text: LFBO 181800Z AUTO 30009KT 9999 ///CB 28/18 Q1013 TEMPO 4000 SHRA
Conditions at: LFBO (TOULOUSE/BLAGNAC, FR) observed 1800 UTC 18 August 2019
Temperature: 28.0°C (82°F)
Dewpoint: 18.0°C (64°F) [RH = 55%]
Pressure (altimeter): 29.91 inches Hg (1013.0 mb)
Winds: from the WNW (300 degrees) at 10 MPH (9 knots; 4.6 m/s)
Visibility: 6 or more miles (10+ km)
Ceiling: unknown
Clouds: missing
Weather: no significant weather observed at this time

METAR text: LFBO 181730Z AUTO 30007KT 9999 ///TCU 28/19 Q1012 NOSIG
Conditions at: LFBO (TOULOUSE/BLAGNAC, FR) observed 1730 UTC 18 August 2019
Temperature: 28.0°C (82°F)
Dewpoint: 19.0°C (66°F) [RH = 58%]
Pressure (altimeter): 29.88 inches Hg (1012.0 mb)
Winds: from the WNW (300 degrees) at 8 MPH (7 knots; 3.6 m/s)
Visibility: 6 or more miles (10+ km)
Ceiling: unknown
Clouds: missing
Weather: no significant weather observed at this time

METAR text: LFBO 181700Z AUTO 29012KT 9999 FEW040 OVC050 28/19 Q1012 TEMPO FEW033TCU
Conditions at: LFBO (TOULOUSE/BLAGNAC, FR) observed 1700 UTC 18 August 2019
Temperature: 28.0°C (82°F)
Dewpoint: 19.0°C (66°F) [RH = 58%]
Pressure (altimeter): 29.88 inches Hg (1012.0 mb)
Winds: from the WNW (290 degrees) at 14 MPH (12 knots; 6.2 m/s)
Visibility: 6 or more miles (10+ km)
Ceiling: 5000 feet AGL
Clouds: few clouds at 4000 feet AGL
overcast cloud deck at 5000 feet AGL
Weather: no significant weather observed at this time

METAR text: LFBO 181630Z AUTO 32010KT 9999 SCT040 BKN052 OVC068 29/19 Q1012 TEMPO FEW033TCU
Conditions at: LFBO (TOULOUSE/BLAGNAC, FR) observed 1630 UTC 18 August 2019
Temperature: 29.0°C (84°F)
Dewpoint: 19.0°C (66°F) [RH = 55%]
Pressure (altimeter): 29.88 inches Hg (1012.0 mb)
Winds: from the NW (320 degrees) at 12 MPH (10 knots; 5.1 m/s)
Visibility: 6 or more miles (10+ km)
Ceiling: 5200 feet AGL
Clouds: scattered clouds at 4000 feet AGL
broken clouds at 5200 feet AGL
overcast cloud deck at 6800 feet AGL
Weather: no significant weather observed at this time

METAR text: LFBO 181600Z AUTO 29012KT 9999 SCT039 BKN046 BKN054 28/19 Q1012 TEMPO FEW033TCU
Conditions at: LFBO (TOULOUSE/BLAGNAC, FR) observed 1600 UTC 18 August 2019
Temperature: 28.0°C (82°F)
Dewpoint: 19.0°C (66°F) [RH = 58%]
Pressure (altimeter): 29.88 inches Hg (1012.0 mb)
Winds: from the WNW (290 degrees) at 14 MPH (12 knots; 6.2 m/s)
Visibility: 6 or more miles (10+ km)
Ceiling: 4600 feet AGL
Clouds: scattered clouds at 3900 feet AGL
broken clouds at 4600 feet AGL
broken clouds at 5400 feet AGL
Weather: no significant weather observed at this time

METAR text: LFBO 181530Z AUTO 31013KT 9999 SCT045 BKN054 OVC074 30/20 Q1012 TEMPO FEW033TCU
Conditions at: LFBO (TOULOUSE/BLAGNAC, FR) observed 1530 UTC 18 August 2019
Temperature: 30.0°C (86°F)
Dewpoint: 20.0°C (68°F) [RH = 55%]
Pressure (altimeter): 29.88 inches Hg (1012.0 mb)
Winds: from the NW (310 degrees) at 15 MPH (13 knots; 6.7 m/s)
Visibility: 6 or more miles (10+ km)
Ceiling: 5400 feet AGL
Clouds: scattered clouds at 4500 feet AGL
broken clouds at 5400 feet AGL
overcast cloud deck at 7400 feet AGL
Weather: no significant weather observed at this time

METAR text: LFBO 181500Z AUTO 31014KT 9999 FEW045 BKN054 OVC076 29/19 Q1012 NOSIG
Conditions at: LFBO (TOULOUSE/BLAGNAC, FR) observed 1500 UTC 18 August 2019
Temperature: 29.0°C (84°F)
Dewpoint: 19.0°C (66°F) [RH = 55%]
Pressure (altimeter): 29.88 inches Hg (1012.0 mb)
Winds: from the NW (310 degrees) at 16 MPH (14 knots; 7.2 m/s)
Visibility: 6 or more miles (10+ km)
Ceiling: 5400 feet AGL
Clouds: few clouds at 4500 feet AGL
broken clouds at 5400 feet AGL
overcast cloud deck at 7600 feet AGL
Weather: no significant weather observed at this time

METAR text: LFBO 181430Z AUTO 26008KT 200V290 9999 SCT046 BKN056 BKN066 31/19 Q1012 NOSIG
Conditions at: LFBO (TOULOUSE/BLAGNAC, FR) observed 1430 UTC 18 August 2019
Temperature: 31.0°C (88°F)
Dewpoint: 19.0°C (66°F) [RH = 49%]
Pressure (altimeter): 29.88 inches Hg (1012.0 mb)
Winds: from the W (260 degrees) at 9 MPH (8 knots; 4.1 m/s)
Visibility: 6 or more miles (10+ km)
Ceiling: 5600 feet AGL
Clouds: scattered clouds at 4600 feet AGL
broken clouds at 5600 feet AGL
broken clouds at 6600 feet AGL
Weather: no significant weather observed at this time

METAR text: LFBO 181400Z AUTO 23008KT 190V270 CAVOK 31/19 Q1012 NOSIG
Conditions at: LFBO (TOULOUSE/BLAGNAC, FR) observed 1400 UTC 18 August 2019
Temperature: 31.0°C (88°F)
Dewpoint: 19.0°C (66°F) [RH = 49%]
Pressure (altimeter): 29.88 inches Hg (1012.0 mb)
Winds: from the SW (230 degrees) at 9 MPH (8 knots; 4.1 m/s)
Visibility: 6 or more miles (10+ km)
Ceiling: ceiling and visibility are OK
Clouds: unknown
Weather: no significant weather observed at this time

METAR text: LFBO 181330Z AUTO 19005KT 120V280 CAVOK 31/19 Q1012 NOSIG
Conditions at: LFBO (TOULOUSE/BLAGNAC, FR) observed 1330 UTC 18 August 2019
Temperature: 31.0°C (88°F)
Dewpoint: 19.0°C (66°F) [RH = 49%]
Pressure (altimeter): 29.88 inches Hg (1012.0 mb)
Winds: from the S (190 degrees) at 6 MPH (5 knots; 2.6 m/s)
Visibility: 6 or more miles (10+ km)
Ceiling: ceiling and visibility are OK
Clouds: unknown
Weather: no significant weather observed at this time

METAR text: LFBO 181300Z AUTO 15006KT 120V180 9999 SCT049 BKN062 31/19 Q1012 NOSIG
Conditions at: LFBO (TOULOUSE/BLAGNAC, FR) observed 1300 UTC 18 August 2019
Temperature: 31.0°C (88°F)
Dewpoint: 19.0°C (66°F) [RH = 49%]
Pressure (altimeter): 29.88 inches Hg (1012.0 mb)
Winds: from the SSE (150 degrees) at 7 MPH (6 knots; 3.1 m/s)
Visibility: 6 or more miles (10+ km)
Ceiling: 6200 feet AGL
Clouds: scattered clouds at 4900 feet AGL
broken clouds at 6200 feet AGL
Weather: no significant weather observed at this time

METAR text: LFBO 181230Z AUTO 18004KT 130V240 9999 BKN046 BKN056 30/20 Q1012 NOSIG
Conditions at: LFBO (TOULOUSE/BLAGNAC, FR) observed 1230 UTC 18 August 2019
Temperature: 30.0°C (86°F)
Dewpoint: 20.0°C (68°F) [RH = 55%]
Pressure (altimeter): 29.88 inches Hg (1012.0 mb)
Winds: from the S (180 degrees) at 5 MPH (4 knots; 2.1 m/s)
Visibility: 6 or more miles (10+ km)
Ceiling: 4600 feet AGL
Clouds: broken clouds at 4600 feet AGL
broken clouds at 5600 feet AGL
Weather: no significant weather observed at this time

METAR text: LFBO 181200Z AUTO 16008KT 110V210 9999 FEW042 SCT048 31/19 Q1012 NOSIG
Conditions at: LFBO (TOULOUSE/BLAGNAC, FR) observed 1200 UTC 18 August 2019
Temperature: 31.0°C (88°F)
Dewpoint: 19.0°C (66°F) [RH = 49%]
Pressure (altimeter): 29.88 inches Hg (1012.0 mb)
Winds: from the SSE (160 degrees) at 9 MPH (8 knots; 4.1 m/s)
Visibility: 6 or more miles (10+ km)
Ceiling: at least 12,000 feet AGL
Clouds: few clouds at 4200 feet AGL
scattered clouds at 4800 feet AGL
Weather: no significant weather observed at this time

METAR text: LFBO 181130Z AUTO 15007KT 090V220 9999 FEW008 31/20 Q1012 NOSIG
Conditions at: LFBO (TOULOUSE/BLAGNAC, FR) observed 1130 UTC 18 August 2019
Temperature: 31.0°C (88°F)
Dewpoint: 20.0°C (68°F) [RH = 52%]
Pressure (altimeter): 29.88 inches Hg (1012.0 mb)
Winds: from the SSE (150 degrees) at 8 MPH (7 knots; 3.6 m/s)
Visibility: 6 or more miles (10+ km)
Ceiling: at least 12,000 feet AGL
Clouds: few clouds at 800 feet AGL
Weather: no significant weather observed at this time

METAR text: LFBO 181100Z AUTO 14006KT 080V190 9999 SCT035 30/20 Q1012 NOSIG
Conditions at: LFBO (TOULOUSE/BLAGNAC, FR) observed 1100 UTC 18 August 2019
Temperature: 30.0°C (86°F)
Dewpoint: 20.0°C (68°F) [RH = 55%]
Pressure (altimeter): 29.88 inches Hg (1012.0 mb)
Winds: from the SE (140 degrees) at 7 MPH (6 knots; 3.1 m/s)
Visibility: 6 or more miles (10+ km)
Ceiling: at least 12,000 feet AGL
Clouds: scattered clouds at 3500 feet AGL
Weather: no significant weather observed at this time

METAR text: LFBO 181030Z AUTO 15008KT 100V210 9999 FEW032 29/20 Q1012 NOSIG
Conditions at: LFBO (TOULOUSE/BLAGNAC, FR) observed 1030 UTC 18 August 2019
Temperature: 29.0°C (84°F)
Dewpoint: 20.0°C (68°F) [RH = 58%]
Pressure (altimeter): 29.88 inches Hg (1012.0 mb)
Winds: from the SSE (150 degrees) at 9 MPH (8 knots; 4.1 m/s)
Visibility: 6 or more miles (10+ km)
Ceiling: at least 12,000 feet AGL
Clouds: few clouds at 3200 feet AGL
Weather: no significant weather observed at this time

METAR text: LFBO 181000Z AUTO 15012KT 120V190 CAVOK 28/20 Q1012 NOSIG
Conditions at: LFBO (TOULOUSE/BLAGNAC, FR) observed 1000 UTC 18 August 2019
Temperature: 28.0°C (82°F)
Dewpoint: 20.0°C (68°F) [RH = 62%]
Pressure (altimeter): 29.88 inches Hg (1012.0 mb)
Winds: from the SSE (150 degrees) at 14 MPH (12 knots; 6.2 m/s)
Visibility: 6 or more miles (10+ km)
Ceiling: ceiling and visibility are OK
Clouds: unknown
Weather: no significant weather observed at this time

METAR text: LFBO 180930Z AUTO 15014KT CAVOK 28/20 Q1011 BECMG VRB03KT
Conditions at: LFBO (TOULOUSE/BLAGNAC, FR) observed 0930 UTC 18 August 2019
Temperature: 28.0°C (82°F)
Dewpoint: 20.0°C (68°F) [RH = 62%]
Pressure (altimeter): 29.85 inches Hg (1011.0 mb)
Winds: from the SSE (150 degrees) at 16 MPH (14 knots; 7.2 m/s)
Visibility: 6 or more miles (10+ km)
Ceiling: ceiling and visibility are OK
Clouds: unknown
Weather: no significant weather observed at this time

METAR text: LFBO 180900Z AUTO 15011KT 120V190 9999 FEW023 27/20 Q1011 NOSIG
Conditions at: LFBO (TOULOUSE/BLAGNAC, FR) observed 0900 UTC 18 August 2019
Temperature: 27.0°C (81°F)
Dewpoint: 20.0°C (68°F) [RH = 66%]
Pressure (altimeter): 29.85 inches Hg (1011.0 mb)
Winds: from the SSE (150 degrees) at 13 MPH (11 knots; 5.7 m/s)
Visibility: 6 or more miles (10+ km)
Ceiling: at least 12,000 feet AGL
Clouds: few clouds at 2300 feet AGL
Weather: no significant weather observed at this time

METAR text: LFBO 180830Z AUTO 16014KT 9999 BKN022 26/21 Q1011 BECMG VRB03KT
Conditions at: LFBO (TOULOUSE/BLAGNAC, FR) observed 0830 UTC 18 August 2019
Temperature: 26.0°C (79°F)
Dewpoint: 21.0°C (70°F) [RH = 74%]
Pressure (altimeter): 29.85 inches Hg (1011.0 mb)
Winds: from the SSE (160 degrees) at 16 MPH (14 knots; 7.2 m/s)
Visibility: 6 or more miles (10+ km)
Ceiling: 2200 feet AGL
Clouds: broken clouds at 2200 feet AGL
Weather: no significant weather observed at this time

METAR text: LFBO 180800Z AUTO 14015KT 9999 BKN020 26/20 Q1011 NOSIG
Conditions at: LFBO (TOULOUSE/BLAGNAC, FR) observed 0800 UTC 18 August 2019
Temperature: 26.0°C (79°F)
Dewpoint: 20.0°C (68°F) [RH = 70%]
Pressure (altimeter): 29.85 inches Hg (1011.0 mb)
Winds: from the SE (140 degrees) at 17 MPH (15 knots; 7.7 m/s)
Visibility: 6 or more miles (10+ km)
Ceiling: 2000 feet AGL
Clouds: broken clouds at 2000 feet AGL
Weather: no significant weather observed at this time

METAR text: LFBO 180730Z AUTO 15014KT 9999 BKN019 25/21 Q1010 NOSIG
Conditions at: LFBO (TOULOUSE/BLAGNAC, FR) observed 0730 UTC 18 August 2019
Temperature: 25.0°C (77°F)
Dewpoint: 21.0°C (70°F) [RH = 79%]
Pressure (altimeter): 29.82 inches Hg (1010.0 mb)
Winds: from the SSE (150 degrees) at 16 MPH (14 knots; 7.2 m/s)
Visibility: 6 or more miles (10+ km)
Ceiling: 1900 feet AGL
Clouds: broken clouds at 1900 feet AGL
Weather: no significant weather observed at this time

METAR text: LFBO 180700Z AUTO 14011KT 9999 BKN018 25/20 Q1010 TEMPO BKN008
Conditions at: LFBO (TOULOUSE/BLAGNAC, FR) observed 0700 UTC 18 August 2019
Temperature: 25.0°C (77°F)
Dewpoint: 20.0°C (68°F) [RH = 74%]
Pressure (altimeter): 29.82 inches Hg (1010.0 mb)
Winds: from the SE (140 degrees) at 13 MPH (11 knots; 5.7 m/s)
Visibility: 6 or more miles (10+ km)
Ceiling: 1800 feet AGL
Clouds: broken clouds at 1800 feet AGL
Weather: no significant weather observed at this time

METAR text: LFBO 180630Z AUTO 15012KT 9999 BKN017 24/20 Q1010 TEMPO BKN008
Conditions at: LFBO (TOULOUSE/BLAGNAC, FR) observed 0630 UTC 18 August 2019
Temperature: 24.0°C (75°F)
Dewpoint: 20.0°C (68°F) [RH = 78%]
Pressure (altimeter): 29.82 inches Hg (1010.0 mb)
Winds: from the SSE (150 degrees) at 14 MPH (12 knots; 6.2 m/s)
Visibility: 6 or more miles (10+ km)
Ceiling: 1700 feet AGL
Clouds: broken clouds at 1700 feet AGL
Weather: no significant weather observed at this time

METAR text: LFBO 180600Z AUTO 14011KT 9999 BKN016 23/20 Q1009 TEMPO BKN008
Conditions at: LFBO (TOULOUSE/BLAGNAC, FR) observed 0600 UTC 18 August 2019
Temperature: 23.0°C (73°F)
Dewpoint: 20.0°C (68°F) [RH = 83%]
Pressure (altimeter): 29.79 inches Hg (1009.0 mb)
Winds: from the SE (140 degrees) at 13 MPH (11 knots; 5.7 m/s)
Visibility: 6 or more miles (10+ km)
Ceiling: 1600 feet AGL
Clouds: broken clouds at 1600 feet AGL
Weather: no significant weather observed at this time

METAR text: LFBO 180530Z AUTO 14010KT 110V170 9999 BKN016 23/20 Q1009 TEMPO BKN005
Conditions at: LFBO (TOULOUSE/BLAGNAC, FR) observed 0530 UTC 18 August 2019
Temperature: 23.0°C (73°F)
Dewpoint: 20.0°C (68°F) [RH = 83%]
Pressure (altimeter): 29.79 inches Hg (1009.0 mb)
Winds: from the SE (140 degrees) at 12 MPH (10 knots; 5.1 m/s)
Visibility: 6 or more miles (10+ km)
Ceiling: 1600 feet AGL
Clouds: broken clouds at 1600 feet AGL
Weather: no significant weather observed at this time

METAR text: LFBO 180500Z AUTO 13011KT 9999 SCT016 23/20 Q1009 TEMPO BKN005
Conditions at: LFBO (TOULOUSE/BLAGNAC, FR) observed 0500 UTC 18 August 2019
Temperature: 23.0°C (73°F)
Dewpoint: 20.0°C (68°F) [RH = 83%]
Pressure (altimeter): 29.79 inches Hg (1009.0 mb)
Winds: from the SE (130 degrees) at 13 MPH (11 knots; 5.7 m/s)
Visibility: 6 or more miles (10+ km)
Ceiling: at least 12,000 feet AGL
Clouds: scattered clouds at 1600 feet AGL
Weather: no significant weather observed at this time

METAR text: LFBO 180430Z AUTO 13010KT 9999 FEW017 23/20 Q1009 TEMPO BKN005
Conditions at: LFBO (TOULOUSE/BLAGNAC, FR) observed 0430 UTC 18 August 2019
Temperature: 23.0°C (73°F)
Dewpoint: 20.0°C (68°F) [RH = 83%]
Pressure (altimeter): 29.79 inches Hg (1009.0 mb)
Winds: from the SE (130 degrees) at 12 MPH (10 knots; 5.1 m/s)
Visibility: 6 or more miles (10+ km)
Ceiling: at least 12,000 feet AGL
Clouds: few clouds at 1700 feet AGL
Weather: no significant weather observed at this time

METAR text: LFBO 180400Z AUTO 13010KT 9999 FEW017 23/20 Q1009 TEMPO BKN005
Conditions at: LFBO (TOULOUSE/BLAGNAC, FR) observed 0400 UTC 18 August 2019
Temperature: 23.0°C (73°F)
Dewpoint: 20.0°C (68°F) [RH = 83%]
Pressure (altimeter): 29.79 inches Hg (1009.0 mb)
Winds: from the SE (130 degrees) at 12 MPH (10 knots; 5.1 m/s)
Visibility: 6 or more miles (10+ km)
Ceiling: at least 12,000 feet AGL
Clouds: few clouds at 1700 feet AGL
Weather: no significant weather observed at this time

METAR text: LFBO 180330Z AUTO 13009KT 110V170 9999 SCT017 22/20 Q1009 TEMPO BKN005
Conditions at: LFBO (TOULOUSE/BLAGNAC, FR) observed 0330 UTC 18 August 2019
Temperature: 22.0°C (72°F)
Dewpoint: 20.0°C (68°F) [RH = 88%]
Pressure (altimeter): 29.79 inches Hg (1009.0 mb)
Winds: from the SE (130 degrees) at 10 MPH (9 knots; 4.6 m/s)
Visibility: 6 or more miles (10+ km)
Ceiling: at least 12,000 feet AGL
Clouds: scattered clouds at 1700 feet AGL
Weather: no significant weather observed at this time

METAR text: LFBO 180300Z AUTO 14010KT 9999 SCT017 23/20 Q1010 TEMPO BKN005
Conditions at: LFBO (TOULOUSE/BLAGNAC, FR) observed 0300 UTC 18 August 2019
Temperature: 23.0°C (73°F)
Dewpoint: 20.0°C (68°F) [RH = 83%]
Pressure (altimeter): 29.82 inches Hg (1010.0 mb)
Winds: from the SE (140 degrees) at 12 MPH (10 knots; 5.1 m/s)
Visibility: 6 or more miles (10+ km)
Ceiling: at least 12,000 feet AGL
Clouds: scattered clouds at 1700 feet AGL
Weather: no significant weather observed at this time

METAR text: LFBO 180230Z AUTO 13013KT CAVOK 23/19 Q1010 TEMPO BKN005
Conditions at: LFBO (TOULOUSE/BLAGNAC, FR) observed 0230 UTC 18 August 2019
Temperature: 23.0°C (73°F)
Dewpoint: 19.0°C (66°F) [RH = 78%]
Pressure (altimeter): 29.82 inches Hg (1010.0 mb)
Winds: from the SE (130 degrees) at 15 MPH (13 knots; 6.7 m/s)
Visibility: 6 or more miles (10+ km)
Ceiling: ceiling and visibility are OK
Clouds: unknown
Weather: no significant weather observed at this time

METAR text: LFBO 180200Z AUTO 14011KT CAVOK 22/20 Q1010 NOSIG
Conditions at: LFBO (TOULOUSE/BLAGNAC, FR) observed 0200 UTC 18 August 2019
Temperature: 22.0°C (72°F)
Dewpoint: 20.0°C (68°F) [RH = 88%]
Pressure (altimeter): 29.82 inches Hg (1010.0 mb)
Winds: from the SE (140 degrees) at 13 MPH (11 knots; 5.7 m/s)
Visibility: 6 or more miles (10+ km)
Ceiling: ceiling and visibility are OK
Clouds: unknown
Weather: no significant weather observed at this time

METAR text: LFBO 180130Z AUTO 13011KT CAVOK 22/19 Q1011 NOSIG
Conditions at: LFBO (TOULOUSE/BLAGNAC, FR) observed 0130 UTC 18 August 2019
Temperature: 22.0°C (72°F)
Dewpoint: 19.0°C (66°F) [RH = 83%]
Pressure (altimeter): 29.85 inches Hg (1011.0 mb)
Winds: from the SE (130 degrees) at 13 MPH (11 knots; 5.7 m/s)
Visibility: 6 or more miles (10+ km)
Ceiling: ceiling and visibility are OK
Clouds: unknown
Weather: no significant weather observed at this time

METAR text: LFBO 180100Z AUTO 14012KT CAVOK 22/20 Q1011 NOSIG
Conditions at: LFBO (TOULOUSE/BLAGNAC, FR) observed 0100 UTC 18 August 2019
Temperature: 22.0°C (72°F)
Dewpoint: 20.0°C (68°F) [RH = 88%]
Pressure (altimeter): 29.85 inches Hg (1011.0 mb)
Winds: from the SE (140 degrees) at 14 MPH (12 knots; 6.2 m/s)
Visibility: 6 or more miles (10+ km)
Ceiling: ceiling and visibility are OK
Clouds: unknown
Weather: no significant weather observed at this time

METAR text: LFBO 180030Z AUTO 14011KT CAVOK 22/20 Q1011 NOSIG
Conditions at: LFBO (TOULOUSE/BLAGNAC, FR) observed 0030 UTC 18 August 2019
Temperature: 22.0°C (72°F)
Dewpoint: 20.0°C (68°F) [RH = 88%]
Pressure (altimeter): 29.85 inches Hg (1011.0 mb)
Winds: from the SE (140 degrees) at 13 MPH (11 knots; 5.7 m/s)
Visibility: 6 or more miles (10+ km)
Ceiling: ceiling and visibility are OK
Clouds: unknown
Weather: no significant weather observed at this time

METAR text: LFBO 180000Z AUTO 12010KT CAVOK 23/20 Q1011 NOSIG
Conditions at: LFBO (TOULOUSE/BLAGNAC, FR) observed 0000 UTC 18 August 2019
Temperature: 23.0°C (73°F)
Dewpoint: 20.0°C (68°F) [RH = 83%]
Pressure (altimeter): 29.85 inches Hg (1011.0 mb)
Winds: from the ESE (120 degrees) at 12 MPH (10 knots; 5.1 m/s)
Visibility: 6 or more miles (10+ km)
Ceiling: ceiling and visibility are OK
Clouds: unknown
Weather: no significant weather observed at this time

METAR text: LFBO 172330Z AUTO 15005KT CAVOK 23/19 Q1012 NOSIG
Conditions at: LFBO (TOULOUSE/BLAGNAC, FR) observed 2330 UTC 17 August 2019
Temperature: 23.0°C (73°F)
Dewpoint: 19.0°C (66°F) [RH = 78%]
Pressure (altimeter): 29.88 inches Hg (1012.0 mb)
Winds: from the SSE (150 degrees) at 6 MPH (5 knots; 2.6 m/s)
Visibility: 6 or more miles (10+ km)
Ceiling: ceiling and visibility are OK
Clouds: unknown
Weather: no significant weather observed at this time

METAR text: LFBO 172300Z AUTO 13006KT CAVOK 24/19 Q1012 NOSIG
Conditions at: LFBO (TOULOUSE/BLAGNAC, FR) observed 2300 UTC 17 August 2019
Temperature: 24.0°C (75°F)
Dewpoint: 19.0°C (66°F) [RH = 74%]
Pressure (altimeter): 29.88 inches Hg (1012.0 mb)
Winds: from the SE (130 degrees) at 7 MPH (6 knots; 3.1 m/s)
Visibility: 6 or more miles (10+ km)
Ceiling: ceiling and visibility are OK
Clouds: unknown
Weather: no significant weather observed at this time

METAR text: LFBO 172230Z AUTO 11006KT CAVOK 24/19 Q1012 NOSIG
Conditions at: LFBO (TOULOUSE/BLAGNAC, FR) observed 2230 UTC 17 August 2019
Temperature: 24.0°C (75°F)
Dewpoint: 19.0°C (66°F) [RH = 74%]
Pressure (altimeter): 29.88 inches Hg (1012.0 mb)
Winds: from the ESE (110 degrees) at 7 MPH (6 knots; 3.1 m/s)
Visibility: 6 or more miles (10+ km)
Ceiling: ceiling and visibility are OK
Clouds: unknown
Weather: no significant weather observed at this time

METAR text: LFBO 172200Z AUTO 13012KT CAVOK 25/19 Q1012 NOSIG
Conditions at: LFBO (TOULOUSE/BLAGNAC, FR) observed 2200 UTC 17 August 2019
Temperature: 25.0°C (77°F)
Dewpoint: 19.0°C (66°F) [RH = 69%]
Pressure (altimeter): 29.88 inches Hg (1012.0 mb)
Winds: from the SE (130 degrees) at 14 MPH (12 knots; 6.2 m/s)
Visibility: 6 or more miles (10+ km)
Ceiling: ceiling and visibility are OK
Clouds: unknown
Weather: no significant weather observed at this time

METAR text: LFBO 172130Z AUTO 13009KT CAVOK 26/18 Q1013 NOSIG
Conditions at: LFBO (TOULOUSE/BLAGNAC, FR) observed 2130 UTC 17 August 2019
Temperature: 26.0°C (79°F)
Dewpoint: 18.0°C (64°F) [RH = 61%]
Pressure (altimeter): 29.91 inches Hg (1013.0 mb)
Winds: from the SE (130 degrees) at 10 MPH (9 knots; 4.6 m/s)
Visibility: 6 or more miles (10+ km)
Ceiling: ceiling and visibility are OK
Clouds: unknown
Weather: no significant weather observed at this time

METAR text: LFBO 172100Z AUTO 14006KT CAVOK 26/17 Q1013 NOSIG
Conditions at: LFBO (TOULOUSE/BLAGNAC, FR) observed 2100 UTC 17 August 2019
Temperature: 26.0°C (79°F)
Dewpoint: 17.0°C (63°F) [RH = 58%]
Pressure (altimeter): 29.91 inches Hg (1013.0 mb)
Winds: from the SE (140 degrees) at 7 MPH (6 knots; 3.1 m/s)
Visibility: 6 or more miles (10+ km)
Ceiling: ceiling and visibility are OK
Clouds: unknown
Weather: no significant weather observed at this time

METAR text: LFBO 172030Z AUTO 13004KT 100V160 CAVOK 27/16 Q1013 NOSIG
Conditions at: LFBO (TOULOUSE/BLAGNAC, FR) observed 2030 UTC 17 August 2019
Temperature: 27.0°C (81°F)
Dewpoint: 16.0°C (61°F) [RH = 51%]
Pressure (altimeter): 29.91 inches Hg (1013.0 mb)
Winds: from the SE (130 degrees) at 5 MPH (4 knots; 2.1 m/s)
Visibility: 6 or more miles (10+ km)
Ceiling: ceiling and visibility are OK
Clouds: unknown
Weather: no significant weather observed at this time

METAR text: LFBO 172000Z AUTO 05004KT 020V080 CAVOK 29/14 Q1013 NOSIG
Conditions at: LFBO (TOULOUSE/BLAGNAC, FR) observed 2000 UTC 17 August 2019
Temperature: 29.0°C (84°F)
Dewpoint: 14.0°C (57°F) [RH = 40%]
Pressure (altimeter): 29.91 inches Hg (1013.0 mb)
Winds: from the NE (50 degrees) at 5 MPH (4 knots; 2.1 m/s)
Visibility: 6 or more miles (10+ km)
Ceiling: ceiling and visibility are OK
Clouds: unknown
Weather: no significant weather observed at this time

METAR text: LFBO 171930Z AUTO 04002KT CAVOK 29/14 Q1013 NOSIG
Conditions at: LFBO (TOULOUSE/BLAGNAC, FR) observed 1930 UTC 17 August 2019
Temperature: 29.0°C (84°F)
Dewpoint: 14.0°C (57°F) [RH = 40%]
Pressure (altimeter): 29.91 inches Hg (1013.0 mb)
Winds: from the NE (40 degrees) at 2 MPH (2 knots; 1.0 m/s)
Visibility: 6 or more miles (10+ km)
Ceiling: ceiling and visibility are OK
Clouds: unknown
Weather: no significant weather observed at this time

METAR text: LFBO 171900Z AUTO VRB03KT CAVOK 29/14 Q1012 NOSIG
Conditions at: LFBO (TOULOUSE/BLAGNAC, FR) observed 1900 UTC 17 August 2019
Temperature: 29.0°C (84°F)
Dewpoint: 14.0°C (57°F) [RH = 40%]
Pressure (altimeter): 29.88 inches Hg (1012.0 mb)
Winds: variable direction winds at 3 MPH (3 knots; 1.5 m/s)
Visibility: 6 or more miles (10+ km)
Ceiling: ceiling and visibility are OK
Clouds: unknown
Weather: no significant weather observed at this time

METAR text: LFBO 171830Z AUTO 36004KT 320V030 CAVOK 30/13 Q1012 NOSIG
Conditions at: LFBO (TOULOUSE/BLAGNAC, FR) observed 1830 UTC 17 August 2019
Temperature: 30.0°C (86°F)
Dewpoint: 13.0°C (55°F) [RH = 35%]
Pressure (altimeter): 29.88 inches Hg (1012.0 mb)
Winds: from the N (360 degrees) at 5 MPH (4 knots; 2.1 m/s)
Visibility: 6 or more miles (10+ km)
Ceiling: ceiling and visibility are OK
Clouds: unknown
Weather: no significant weather observed at this time

METAR text: LFBO 171800Z AUTO 33006KT CAVOK 31/14 Q1013 NOSIG
Conditions at: LFBO (TOULOUSE/BLAGNAC, FR) observed 1800 UTC 17 August 2019
Temperature: 31.0°C (88°F)
Dewpoint: 14.0°C (57°F) [RH = 36%]
Pressure (altimeter): 29.91 inches Hg (1013.0 mb)
Winds: from the NNW (330 degrees) at 7 MPH (6 knots; 3.1 m/s)
Visibility: 6 or more miles (10+ km)
Ceiling: ceiling and visibility are OK
Clouds: unknown
Weather: no significant weather observed at this time

METAR text: LFBO 171730Z AUTO 33005KT 270V010 CAVOK 31/14 Q1013 NOSIG
Conditions at: LFBO (TOULOUSE/BLAGNAC, FR) observed 1730 UTC 17 August 2019
Temperature: 31.0°C (88°F)
Dewpoint: 14.0°C (57°F) [RH = 36%]
Pressure (altimeter): 29.91 inches Hg (1013.0 mb)
Winds: from the NNW (330 degrees) at 6 MPH (5 knots; 2.6 m/s)
Visibility: 6 or more miles (10+ km)
Ceiling: ceiling and visibility are OK
Clouds: unknown
Weather: no significant weather observed at this time

METAR text: LFBO 171700Z AUTO 29005KT CAVOK 31/14 Q1013 NOSIG
Conditions at: LFBO (TOULOUSE/BLAGNAC, FR) observed 1700 UTC 17 August 2019
Temperature: 31.0°C (88°F)
Dewpoint: 14.0°C (57°F) [RH = 36%]
Pressure (altimeter): 29.91 inches Hg (1013.0 mb)
Winds: from the WNW (290 degrees) at 6 MPH (5 knots; 2.6 m/s)
Visibility: 6 or more miles (10+ km)
Ceiling: ceiling and visibility are OK
Clouds: unknown
Weather: no significant weather observed at this time

METAR text: LFBO 171630Z AUTO 29004KT 240V340 CAVOK 32/14 Q1013 NOSIG
Conditions at: LFBO (TOULOUSE/BLAGNAC, FR) observed 1630 UTC 17 August 2019
Temperature: 32.0°C (90°F)
Dewpoint: 14.0°C (57°F) [RH = 34%]
Pressure (altimeter): 29.91 inches Hg (1013.0 mb)
Winds: from the WNW (290 degrees) at 5 MPH (4 knots; 2.1 m/s)
Visibility: 6 or more miles (10+ km)
Ceiling: ceiling and visibility are OK
Clouds: unknown
Weather: no significant weather observed at this time

Forecast for: AMD
Text: TAF AMD LFBO 190414Z 1904/2006 31012KT 9999 BKN035
Forecast period: 0400 to 1200 UTC 19 August 2019
Forecast type: FROM: standard forecast or significant change
Winds: from the NW (310 degrees) at 14 MPH (12 knots; 6.2 m/s)
Visibility: 6 or more miles 10+ km)
Ceiling: 3500 feet AGL
Clouds: broken clouds at 3500 feet AGL
Weather: no significant weather forecast for this period
Text: TEMPO 1904/1907 BKN008
Forecast period: 0400 to 0700 UTC 19 August 2019
Forecast type: TEMPORARY: The following changes expected for less than half the time period
Visibility: missing
Ceiling: 800 feet AGL
Clouds: broken clouds at 800 feet AGL
Weather: no significant weather forecast for this period
Text: BECMG 1912/1914 CAVOK
Forecast period: 1200 UTC 19 August 2019 to 0200 UTC 20 August 2019
Forecast type: BECOMING: Conditions expected to become as follows by 1400 UTC 19 August 2019
Winds: from the NW (310 degrees) at 14 MPH (12 knots; 6.2 m/s)
Visibility: 6 or more miles 10+ km)
Ceiling: unknown
Clouds: missing
Weather: NSW  (no significant weather)
Text: TEMPO 1922/2002 4000 SHRA BKN060CB
Forecast period: 2200 UTC 19 August 2019 to 0200 UTC 20 August 2019
Forecast type: TEMPORARY: The following changes expected for less than half the time period
Visibility: 2.49 miles (4.01 km)
Ceiling: 6000 feet AGL
Clouds: broken clouds at 6000 feet AGL
Weather: SHRA  (rain showers)
Text: BECMG 2002/2004 4500 RA BKN009
Forecast period: 0200 to 0600 UTC 20 August 2019
Forecast type: BECOMING: Conditions expected to become as follows by 0400 UTC 20 August 2019
Winds: from the NW (310 degrees) at 14 MPH (12 knots; 6.2 m/s)
Visibility: 2.80 miles (4.51 km)
Ceiling: 900 feet AGL
Clouds: broken clouds at 900 feet AGL
Weather: RA  (moderate rain)
Text: PROB40
Forecast period: 0200 to 0600 UTC 20 August 2019
Forecast type: TEMPORARY: The following changes expected for less than half the time period
Visibility: 1.24 miles (2.00 km)
Ceiling: 400 feet AGL
Clouds: broken clouds at 400 feet AGL
scattered clouds at 3000 feet AGL
Weather: RA  (moderate rain)